createdAt,value
2023-08-31T00:01:25.616Z,76.50
2023-08-31T00:11:27.058Z,76.20
2023-08-31T00:21:28.514Z,76.20
2023-08-31T00:31:29.933Z,76.00
2023-08-31T00:41:31.373Z,75.70
2023-08-31T00:51:32.802Z,75.50
2023-08-31T01:01:34.299Z,75.50
2023-08-31T01:11:35.789Z,75.40
2023-08-31T01:21:37.222Z,75.50
2023-08-31T01:31:38.692Z,70.10
2023-08-31T01:41:40.185Z,68.70
2023-08-31T01:51:41.706Z,68.90
2023-08-31T02:01:43.166Z,68.80
2023-08-31T02:11:46.007Z,68.50
2023-08-31T02:21:47.717Z,68.80
2023-08-31T02:31:49.161Z,69.40
2023-08-31T02:41:50.609Z,68.90
2023-08-31T02:51:52.026Z,68.90
2023-08-31T03:01:53.508Z,69.20
2023-08-31T03:11:54.969Z,69.90
2023-08-31T03:21:56.406Z,69.80
2023-08-31T03:31:57.864Z,69.80
2023-08-31T03:41:59.307Z,70.00
2023-08-31T03:52:00.763Z,69.80
2023-08-31T04:02:02.199Z,69.50
2023-08-31T04:12:03.665Z,69.00
2023-08-31T04:22:05.124Z,68.60
2023-08-31T04:32:06.560Z,68.90
2023-08-31T04:42:08.012Z,69.80
2023-08-31T04:52:09.447Z,69.40
2023-08-31T05:02:10.872Z,69.60
2023-08-31T05:12:12.799Z,69.60
2023-08-31T05:22:14.320Z,70.00
2023-08-31T05:32:15.757Z,70.10
2023-08-31T05:42:17.228Z,69.50
2023-08-31T05:52:18.719Z,69.80
2023-08-31T06:02:20.148Z,70.20
2023-08-31T06:12:21.593Z,69.90
2023-08-31T06:22:23.034Z,76.00
2023-08-31T06:32:24.494Z,79.10
2023-08-31T06:42:26.634Z,78.80
2023-08-31T06:52:31.855Z,78.10
2023-08-31T07:02:34.302Z,78.00
2023-08-31T07:12:35.824Z,78.30
2023-08-31T07:22:37.304Z,77.70
2023-08-31T07:32:38.752Z,78.90
2023-08-31T07:42:40.233Z,75.20
2023-08-31T07:52:41.681Z,75.60
2023-08-31T08:02:43.181Z,74.50
2023-08-31T08:12:44.751Z,72.80
2023-08-31T08:22:46.240Z,74.80
2023-08-31T08:32:48.834Z,74.10
2023-08-31T08:42:50.295Z,73.40
2023-08-31T08:52:51.744Z,73.40
2023-08-31T09:02:53.274Z,72.70
2023-08-31T09:12:54.749Z,71.40
2023-08-31T09:22:56.194Z,72.30
2023-08-31T09:32:57.707Z,72.00
2023-08-31T09:42:59.138Z,71.90
2023-08-31T09:53:00.568Z,70.80
2023-08-31T10:03:02.042Z,70.00
2023-08-31T10:13:03.535Z,69.80
2023-08-31T10:23:04.992Z,68.80
2023-08-31T10:33:06.427Z,68.20
2023-08-31T10:43:07.873Z,67.50
2023-08-31T10:53:09.457Z,67.00
2023-08-31T11:03:11.386Z,66.40
2023-08-31T11:13:13.264Z,66.70
2023-08-31T11:23:15.054Z,65.00
2023-08-31T11:33:17.028Z,65.60
2023-08-31T11:43:18.802Z,64.30
2023-08-31T11:53:20.284Z,64.80
2023-08-31T12:03:23.721Z,64.50
2023-08-31T12:13:28.866Z,63.10
2023-08-31T12:23:30.584Z,62.80
2023-08-31T12:33:32.041Z,62.10
2023-08-31T12:43:33.530Z,62.70
2023-08-31T12:53:35.016Z,61.50
2023-08-31T13:03:36.498Z,61.20
2023-08-31T13:13:37.979Z,61.20
2023-08-31T13:23:39.549Z,61.40
2023-08-31T13:33:40.991Z,47.80
2023-08-31T13:43:42.428Z,91.50
2023-08-31T14:04:02.182Z,79.80
2023-08-31T14:14:03.968Z,77.50
2023-08-31T14:24:05.725Z,77.30
2023-08-31T14:34:07.270Z,77.50
2023-08-31T14:54:31.144Z,78.10
2023-08-31T15:04:32.863Z,78.40
2023-08-31T15:14:34.606Z,78.80
2023-08-31T15:24:36.406Z,78.60
2023-08-31T15:34:37.836Z,78.40
2023-08-31T15:44:39.752Z,78.60
2023-08-31T15:54:41.215Z,78.40
2023-08-31T16:04:42.649Z,78.30
2023-08-31T16:14:44.095Z,78.00
2023-08-31T16:24:46.967Z,77.60
2023-08-31T16:34:48.697Z,77.30
2023-08-31T16:44:52.594Z,76.90
2023-08-31T16:54:54.218Z,76.40
2023-08-31T17:04:55.762Z,75.80
2023-08-31T17:14:57.353Z,75.80
2023-08-31T17:24:59.693Z,74.90
2023-08-31T17:35:01.204Z,74.40
2023-08-31T17:45:04.827Z,73.70
2023-08-31T17:55:15.263Z,73.10
2023-08-31T18:05:17.998Z,58.00
2023-08-31T18:15:19.784Z,61.90
2023-08-31T18:25:21.225Z,59.80
2023-08-31T18:35:22.670Z,59.90
2023-08-31T18:45:27.131Z,60.60
2023-08-31T18:55:31.276Z,61.20
2023-08-31T19:05:33.711Z,62.00
2023-08-31T19:15:35.228Z,62.60
2023-08-31T19:25:37.161Z,63.10
2023-08-31T19:35:58.503Z,63.40
2023-08-31T19:46:01.013Z,63.90
2023-08-31T19:56:02.583Z,64.20
2023-08-31T20:06:11.465Z,64.70
2023-08-31T20:16:13.664Z,65.20
2023-08-31T20:26:15.136Z,65.70
2023-08-31T20:36:16.578Z,66.20
2023-08-31T20:46:18.043Z,66.90
2023-08-31T20:56:19.531Z,67.40
2023-08-31T21:06:20.962Z,68.00
2023-08-31T21:16:22.513Z,68.70
2023-08-31T21:26:23.943Z,69.20
2023-08-31T21:36:25.389Z,69.70
2023-08-31T21:46:26.851Z,70.10
2023-08-31T21:56:28.314Z,70.50
2023-08-31T22:06:29.766Z,70.90
2023-08-31T22:16:31.248Z,71.10
2023-08-31T22:26:32.789Z,71.50
2023-08-31T22:36:34.250Z,71.50
2023-08-31T22:46:35.667Z,71.70
2023-08-31T22:56:37.119Z,72.00
2023-08-31T23:06:38.570Z,72.10
2023-08-31T23:16:40.018Z,72.00
2023-08-31T23:26:41.466Z,72.10
2023-08-31T23:36:43.002Z,72.10
2023-08-31T23:46:44.448Z,72.30
2023-08-31T23:56:45.990Z,72.40
